Terminal Aerodrome Forecast
Issued by NWS

Home | Current Version | Previous Version | Text Only | Print | Product List | Glossary On
Versions: 1 2 3 4 5 6 7 8 9 10 11 12 13 14 15 16 17 18 19 20 21 22 23 24 25 26 27 28 29 30 31 32 33 34 35 36 37 38 39 40 41 42 43 44 45 46 47 48 49 50
253
FTAK31 PAFA 201740
TAFAFA
TAF
PAFA 201740Z 2018/2124 03004KT P6SM SCT008 SCT025 BKN070
     FM202200 06005KT P6SM VCTS SCT035 SCT050CB BKN100
     FM210600 VRB03KT P6SM SCT050 BKN150
     FM211300 VRB03KT P6SM VCFG FEW004 SCT050 BKN100=

USA.gov is the U.S. government's official web portal to all federal, state and local government web resources and services.